»·PEaware :: N148WT KCRQ-KSNA

N148WT :: KCRQ-KSNA

FLIGHT INFORMATION

Flight Status: Arrived
Operator: Privately registered:
United States
More flights under this callsign
Pilot: Vlad D. (11271)
Aircraft: Unknown
(B60T)
More flights by this aircraft type
Origin: KCRQ McClellan-Palomar
United States
Destination: KSNA John Wayne-Orange Co
United States
More flights between these airports :: More routes between these airports
Route: +MZB293R SLI148R SLI
File this flight plan on PilotEdge
Remarks:
Altitude:
(Current/Filed)
8,000ft
Speed:
(Current/Filed)
200kts
Departed: 18-May-16 04:10 PM
Arrived: 18-May-16 04:41 PM
Distance/Time
Traveled:
44nm/0:31
Distance/Time
To Go:
Arrived

Flight Plot

Page will automatically refresh every two minutes.


Map Options




Map Legend


Flown Route
Filed Route
Departure Airport
Arrival Airport
Navaid (VOR, NDB)
Fix

Horizontal Profiles

Position Reports

Time Latitude Longitude Heading Altitude Ground
Speed
18-May-16 15:30 33.126698 -117.281443 77 303ft 0kts
18-May-16 15:31 33.126698 -117.281443 77 303ft 0kts
18-May-16 15:32 33.126698 -117.281443 77 303ft 0kts
18-May-16 15:33 33.126698 -117.281443 77 303ft 0kts
18-May-16 15:34 33.126698 -117.281443 77 303ft 0kts
18-May-16 15:35 33.126698 -117.281443 77 303ft 0kts
18-May-16 15:36 33.126698 -117.281443 77 303ft 0kts
18-May-16 15:37 33.126698 -117.281442 77 303ft 0kts
18-May-16 15:38 33.126698 -117.281439 77 303ft 0kts
18-May-16 15:39 33.126699 -117.281436 77 303ft 0kts
18-May-16 15:40 33.126699 -117.281433 77 303ft 0kts
18-May-16 15:41 33.126700 -117.281429 77 303ft 0kts
18-May-16 15:42 33.126701 -117.281426 77 303ft 0kts
18-May-16 15:43 33.126701 -117.281423 77 303ft 0kts
18-May-16 15:44 33.126702 -117.281419 77 303ft 0kts
18-May-16 15:45 33.126702 -117.281416 77 303ft 0kts
18-May-16 15:46 33.126703 -117.281413 77 303ft 0kts
18-May-16 15:47 33.126704 -117.281409 77 303ft 0kts
18-May-16 15:48 33.126704 -117.281406 77 303ft 0kts
18-May-16 15:49 33.126705 -117.281402 77 303ft 0kts
18-May-16 15:50 33.126705 -117.281399 77 303ft 0kts
18-May-16 15:51 33.126706 -117.281395 77 303ft 0kts
18-May-16 15:52 33.126707 -117.281392 77 303ft 0kts
18-May-16 15:53 33.126707 -117.281389 77 303ft 0kts
18-May-16 15:54 33.126708 -117.281385 77 303ft 0kts
18-May-16 15:55 33.126709 -117.281382 77 303ft 0kts
18-May-16 15:56 33.126709 -117.281378 77 303ft 0kts
18-May-16 15:57 33.126953 -117.281258 353 303ft 1kts
18-May-16 15:58 33.127352 -117.280347 78 303ft 6kts
18-May-16 15:59 33.127881 -117.277060 79 303ft 17kts
18-May-16 16:00 33.128460 -117.272164 97 303ft 4kts
18-May-16 16:01 33.128614 -117.271938 303 303ft 0kts
18-May-16 16:02 33.128616 -117.271942 303 303ft 0kts
18-May-16 16:03 33.128619 -117.271947 303 303ft 0kts
18-May-16 16:04 33.128625 -117.271957 303 303ft 0kts
18-May-16 16:05 33.128633 -117.271972 303 303ft 0kts
18-May-16 16:06 33.128776 -117.272386 343 303ft 0kts
18-May-16 16:07 33.129421 -117.272951 259 303ft 2kts
18-May-16 16:08 33.124170 -117.301255 259 1281ft 154kts
18-May-16 16:09 33.118478 -117.347428 262 3167ft 137kts
18-May-16 16:10 33.111391 -117.397257 262 5213ft 163kts
18-May-16 16:11 33.102431 -117.452272 262 7225ft 171kts
18-May-16 16:12 33.092502 -117.511619 262 7996ft 194kts
18-May-16 16:13 33.081888 -117.577321 262 7996ft 205kts
18-May-16 16:14 33.071517 -117.644701 268 7996ft 205kts
18-May-16 16:15 33.090538 -117.705447 311 7997ft 197kts
18-May-16 16:16 33.126402 -117.755081 313 7996ft 197kts
18-May-16 16:17 33.161338 -117.805524 311 7995ft 197kts
18-May-16 16:18 33.205467 -117.841967 336 7996ft 194kts
18-May-16 16:19 33.255993 -117.864009 344 8012ft 193kts
18-May-16 16:20 33.307881 -117.881725 344 7915ft 198kts
18-May-16 16:21 33.359804 -117.898536 341 6852ft 188kts
18-May-16 16:22 33.413436 -117.918854 339 6044ft 204kts
18-May-16 16:23 33.467425 -117.938976 340 6005ft 203kts
18-May-16 16:24 33.521538 -117.958839 340 6003ft 203kts
18-May-16 16:25 33.575713 -117.978614 340 6001ft 203kts
18-May-16 16:26 33.629834 -117.998463 340 6000ft 203kts
18-May-16 16:27 33.684240 -118.003862 26 6007ft 209kts
18-May-16 16:28 33.733386 -117.962914 33 5216ft 219kts
18-May-16 16:29 33.783320 -117.920125 33 4994ft 229kts
18-May-16 16:30 33.835785 -117.875399 33 4987ft 231kts
18-May-16 16:31 33.881109 -117.820797 52 4159ft 217kts
18-May-16 16:32 33.908163 -117.762633 95 3851ft 207kts
18-May-16 16:33 33.869138 -117.736555 208 2934ft 154kts
18-May-16 16:34 33.836034 -117.769135 207 2984ft 174kts
18-May-16 16:35 33.788906 -117.797409 208 2293ft 168kts
18-May-16 16:36 33.753660 -117.819481 208 1712ft 131kts
18-May-16 16:37 33.722353 -117.839281 208 963ft 113kts
18-May-16 16:38 33.695961 -117.855756 208 383ft 103kts
18-May-16 16:39 33.675194 -117.869155 208 59ft 22kts
18-May-16 16:40 33.674341 -117.871152 327 59ft 6kts
18-May-16 16:41 33.674884 -117.871863 219 59ft 0kts
18-May-16 16:42 33.674880 -117.871867 219 59ft 0kts
18-May-16 16:43 33.674877 -117.871870 219 59ft 0kts
18-May-16 16:44 33.674874 -117.871873 219 59ft 0kts
18-May-16 16:45 33.674870 -117.871877 219 59ft 0kts
18-May-16 16:46 33.674867 -117.871880 219 59ft 0kts
18-May-16 16:47 33.674865 -117.871882 219 59ft 0kts

Navigation Log

Ident Type
Flight plan parsing failed, navigation log unavailable